Terminal Aerodrome Forecast
Issued by NWS Pittsburgh, PA

Current Version | Previous Version | Graphics & Text | Print | Product List | Glossary On
Versions: 1 2 3 4 5 6 7 8 9 10 11 12 13 14 15 16 17 18 19 20 21 22 23 24 25 26 27 28 29 30
000
FTUS41 KPBZ 231400 AAA
TAFPIT
TAF AMD
KPIT 231452Z 2315/2418 22005KT P6SM SCT050 BKN200
     FM231800 27013KT P6SM -SHRA BKN035
     FM232200 31012KT P6SM BKN035
     FM240300 33006KT P6SM SCT035=

USA.gov is the U.S. government's official web portal to all federal, state and local government web resources and services.